Flight Track Log - Related Links

Times and Time Zones

All times are in EDT time to prevent confusion due to time zone crossing. See the GJS3707 flight status page for this flight to view local times or setup timezone preferences in your user account.

Time Position Orientation Groundspeed Altitude Reporting Facility
EDT Latitude Longitude Course Direction KTS MPH feet Rate Location/Type
Sat 11:17:01 AM 41.9667 -87.9500 261° West 182 209 1,600  Level Chicago TRACON
Sat 11:17:55 AM 41.9667 -88.0167 270° West 218 251 3,000 1,737 Climbing Chicago TRACON
Sat 11:18:55 AM 41.9667 -88.1167 270° West 267 307 4,900 1,740 Climbing Chicago TRACON
Sat 11:19:00 AM 41.9290 -88.3552 255° West  Level FlightAware Approximate
Sat 11:19:35 AM 41.9672 -88.1756 271° West 257 296 5,900  Level Chicago Center
Sat 11:20:00 AM 41.9119 -88.5075 261° West  Level FlightAware Approximate
Sat 11:20:37 AM 41.9958 -88.2728 292° West 286 329 8,400  Level Chicago Center
Sat 11:21:00 AM 41.8939 -88.6606 261° West  Level FlightAware Approximate
Sat 11:21:38 AM 42.0375 -88.3636 302° West 296 341 10,800  Level Chicago Center
Sat 11:22:00 AM 41.8761 -88.8137 261° West  Level FlightAware Approximate
Sat 11:22:40 AM 42.0336 -88.4939 268° West 296 341 13,400  Level Chicago Center
Sat 11:23:42 AM 42.0169 -88.6042 259° West 307 353 15,500 1,887 Climbing Chicago Center
Sat 11:24:44 AM 41.9903 -88.7161 252° West 316 364 17,300 1,171 Climbing Chicago Center
Sat 11:25:45 AM 41.9625 -88.8381 253° West 340 391 17,900 927 Climbing Chicago Center
Sat 11:26:47 AM 41.9308 -88.9731 253° West 373 429 19,200 1,452 Climbing Chicago Center
Sat 11:27:49 AM 41.9142 -89.1433 263° West 386 444 20,900 1,403 Climbing Chicago Center
Sat 11:28:51 AM 41.9019 -89.2903 264° West 397 457 22,100 1,317 Climbing Chicago Center
Sat 11:29:52 AM 41.8892 -89.4392 263° West 403 464 23,600 1,415 Climbing Chicago Center
Sat 11:30:54 AM 41.8847 -89.5894 268° West 406 467 25,000 1,161 Climbing Chicago Center
Sat 11:31:56 AM 41.8819 -89.7397 269° West 406 467 26,000 1,016 Climbing Chicago Center
Sat 11:32:58 AM 41.8775 -89.9139 268° West 411 473 27,100 829 Climbing Chicago Center
Sat 11:33:59 AM 41.8761 -90.0517 269° West 419 482 27,700 732 Climbing Chicago Center
Sat 11:35:01 AM 41.8722 -90.2431 269° West 431 496 28,600 871 Climbing Chicago Center
Sat 11:36:03 AM 41.8678 -90.4050 268° West 437 503 29,500 871 Climbing Chicago Center
Sat 11:37:05 AM 41.8639 -90.5661 268° West 436 502 30,400 878 Climbing Chicago Center
Sat 11:38:06 AM 41.8572 -90.7308 267° West 445 512 31,300 878 Climbing Chicago Center
Sat 11:39:08 AM 41.8525 -90.8911 268° West 436 502 32,200 823 Climbing Chicago Center
Sat 11:40:10 AM 41.8475 -91.0500 268° West 430 495 33,000 683 Climbing Chicago Center
Sat 11:41:11 AM 41.8408 -91.2433 267° West 434 499 33,600 488 Climbing Chicago Center
Sat 11:42:13 AM 41.8350 -91.4067 267° West 440 506 34,000 194 Climbing Chicago Center
Sat 11:43:15 AM 41.8294 -91.5747 268° West 450 518 34,000  Level Chicago Center
Sat 11:44:17 AM 41.8228 -91.7411 267° West 450 518 34,000  Level Chicago Center
Sat 11:45:18 AM 41.8158 -91.9064 267° West 448 516 34,000  Level Chicago Center
Sat 11:46:20 AM 41.8094 -92.0725 267° West 449 517 34,000  Level Chicago Center
Sat 11:47:22 AM 41.8031 -92.2394 267° West 450 518 34,000  Level Chicago Center
Sat 11:48:23 AM 41.7933 -92.4381 266° West 448 516 34,000  Level Chicago Center
Sat 11:49:26 AM 41.7864 -92.6047 267° West 451 519 34,000  Level Chicago Center
Sat 11:50:03 AM 41.7817 -92.7056 266° West 450 518 34,000  Level Minneapolis Center
Sat 11:51:05 AM 41.7733 -92.8789 266° West 450 518 34,000  Level Minneapolis Center
Sat 11:52:06 AM 41.7658 -93.0433 267° West 449 517 34,000  Level Minneapolis Center
Sat 11:53:08 AM 41.7561 -93.2081 266° West 448 516 34,000  Level Minneapolis Center
Sat 11:54:09 AM 41.7478 -93.3725 266° West 448 516 34,000  Level Minneapolis Center
Sat 11:55:11 AM 41.7378 -93.5661 266° West 439 505 34,000  Level Minneapolis Center
Sat 11:56:12 AM 41.7303 -93.7272 266° West 438 504 34,000  Level Minneapolis Center
Sat 11:57:14 AM 41.7217 -93.8864 266° West 441 507 34,000  Level Minneapolis Center
Sat 11:58:15 AM 41.7117 -94.0503 265° West 443 510 34,000  Level Minneapolis Center
Sat 11:59:17 AM 41.7019 -94.2147 266° West 444 511 34,000  Level Minneapolis Center
Sat 12:00:21 PM 41.6858 -94.4131 264° West 448 516 34,000  Level Minneapolis Center
Sat 12:01:23 PM 41.6792 -94.5772 267° West 444 511 34,000  Level Minneapolis Center
Sat 12:02:24 PM 41.7117 -94.7397 285° West 450 518 34,000  Level Minneapolis Center
Sat 12:03:26 PM 41.7428 -94.9019 284° West 452 520 34,000  Level Minneapolis Center
Sat 12:04:27 PM 41.7739 -95.0619 285° West 447 514 34,000  Level Minneapolis Center
Sat 12:05:41 PM 41.8042 -95.2239 284° West 450 518 34,000  Level Minneapolis Center
Sat 12:06:42 PM 41.8406 -95.4158 284° West 447 514 34,000  Level Minneapolis Center
Sat 12:07:56 PM 41.8758 -95.6083 284° West 446 513 34,000  Level Minneapolis Center
Sat 12:08:58 PM 41.9097 -95.7972 284° West 440 506 34,000  Level Minneapolis Center
Sat 12:09:59 PM 41.9389 -95.9558 284° West 440 506 34,000  Level Minneapolis Center
Sat 12:11:01 PM 41.9678 -96.1150 284° West 441 507 34,000  Level Minneapolis Center
Sat 12:12:02 PM 41.9953 -96.2731 283° West 438 504 34,000  Level Minneapolis Center
Sat 12:13:04 PM 42.0233 -96.4303 284° West 436 502 34,000  Level Minneapolis Center
Sat 12:14:05 PM 42.0569 -96.6172 284° West 433 498 34,000  Level Minneapolis Center
Sat 12:15:07 PM 42.0842 -96.7731 283° West 431 496 34,000  Level Minneapolis Center
Sat 12:16:08 PM 42.1100 -96.9300 283° West 432 497 34,000  Level Minneapolis Center
Sat 12:17:10 PM 42.1381 -97.0861 284° West 430 495 34,000  Level Minneapolis Center
Sat 12:18:11 PM 42.1592 -97.2139 283° West 434 499 34,000  Level Minneapolis Center
Sat 12:19:13 PM 42.1914 -97.4031 283° West 434 499 34,000  Level Minneapolis Center
Sat 12:20:15 PM 42.2175 -97.5639 282° West 437 503 34,000  Level Minneapolis Center
Sat 12:21:16 PM 42.2453 -97.7231 283° West 438 504 34,000  Level Minneapolis Center
Sat 12:22:18 PM 42.2706 -97.8892 282° West 438 504 34,000  Level Minneapolis Center
Sat 12:23:19 PM 42.3019 -98.0850 282° West 445 512 34,000  Level Minneapolis Center
Sat 12:24:21 PM 42.3292 -98.2481 283° West 446 513 34,000  Level Minneapolis Center
Sat 12:25:22 PM 42.3553 -98.4136 282° West 450 518 34,000  Level Minneapolis Center
Sat 12:26:24 PM 42.3808 -98.5775 282° West 448 516 34,000  Level Minneapolis Center
Sat 12:27:26 PM 42.4075 -98.7414 282° West 447 514 34,000  Level Minneapolis Center
Sat 12:28:27 PM 42.4314 -98.9067 281° West 448 516 34,000  Level Minneapolis Center
Sat 12:29:28 PM 42.4578 -99.0714 282° West 448 516 34,000  Level Minneapolis Center
Sat 12:30:30 PM 42.4825 -99.2378 281° West 451 519 34,000  Level Minneapolis Center
Sat 12:31:31 PM 42.5125 -99.4378 282° West 452 520 34,000  Level Minneapolis Center
Sat 12:31:56 PM 42.5211 -99.5050 280° West 453 521 34,000  Level Denver Center
Sat 12:32:58 PM 42.5464 -99.6756 281° West 459 528 34,000  Level Denver Center
Sat 12:33:34 PM 42.5603 -99.7769 281° West 459 528 34,000  Level Minneapolis Center
Sat 12:34:36 PM 42.5850 -99.9444 281° West 456 525 34,000  Level Minneapolis Center
Sat 12:35:02 PM 42.5950 -100.0114 281° West 456 525 34,000  Level Denver Center
Sat 12:36:04 PM 42.6211 -100.1997 281° West 459 528 34,000  Level Denver Center
Sat 12:37:06 PM 42.6447 -100.3617 281° West 458 527 34,000  Level Denver Center
Sat 12:38:08 PM 42.6714 -100.5514 281° West 460 529 34,000  Level Denver Center
Sat 12:39:10 PM 42.6933 -100.7169 280° West 464 534 34,000  Level Denver Center
Sat 12:40:13 PM 42.7197 -100.9064 281° West 460 529 34,000  Level Denver Center
Sat 12:41:15 PM 42.7411 -101.0714 280° West 461 531 34,000  Level Denver Center
Sat 12:42:17 PM 42.7653 -101.2617 280° West 461 531 34,000  Level Denver Center
Sat 12:43:19 PM 42.7867 -101.4206 280° West 454 522 34,000  Level Denver Center
Sat 12:44:21 PM 42.8111 -101.6103 280° West 452 520 34,000  Level Denver Center
Sat 12:45:23 PM 42.8308 -101.7686 280° West 447 514 34,000  Level Denver Center
Sat 12:46:26 PM 42.8525 -101.9408 280° West 448 516 34,000  Level Denver Center
Sat 12:47:27 PM 42.8753 -102.1253 280° West 444 511 34,000  Level Denver Center
Sat 12:48:29 PM 42.8947 -102.2811 280° West 437 503 34,000  Level Denver Center
Sat 12:49:31 PM 42.9172 -102.4642 280° West 437 503 34,000  Level Denver Center
Sat 12:50:33 PM 42.9353 -102.6189 279° West 434 499 34,000  Level Denver Center
Sat 12:51:35 PM 42.9500 -102.7475 279° West 430 495 34,000  Level Denver Center
Sat 12:52:37 PM 42.9744 -102.9539 279° West 431 496 34,000  Level Denver Center
Sat 12:53:39 PM 42.9922 -103.1089 279° West 432 497 34,000  Level Denver Center
Sat 12:54:41 PM 43.0131 -103.2886 279° West 430 495 34,000  Level Denver Center
Sat 12:55:43 PM 43.0303 -103.4442 279° West 433 498 34,000  Level Denver Center
Sat 12:56:45 PM 43.0506 -103.6264 279° West 435 501 34,000  Level Denver Center
Sat 12:57:47 PM 43.0681 -103.7819 279° West 435 501 34,000  Level Denver Center
Sat 12:59:01 PM 43.0869 -103.9647 278° West 437 503 34,000  Level Denver Center
Sat 01:00:04 PM 43.1094 -104.1739 278° West 438 504 34,000  Level Denver Center
Sat 01:01:06 PM 43.1258 -104.3322 278° West 440 506 34,000  Level Denver Center
Sat 01:02:08 PM 43.1450 -104.5169 278° West 441 507 34,000  Level Denver Center
Sat 01:03:10 PM 43.1608 -104.6758 278° West 442 509 34,000  Level Denver Center
Sat 01:04:12 PM 43.1797 -104.8619 278° West 444 511 34,000  Level Denver Center
Sat 01:05:14 PM 43.1950 -105.0206 278° West 442 509 34,000  Level Denver Center
Sat 01:06:16 PM 43.2122 -105.2053 277° West 440 506 34,000  Level Denver Center
Sat 01:07:18 PM 43.2267 -105.3625 277° West 439 505 34,000  Level Denver Center
Sat 01:08:20 PM 43.2450 -105.5464 278° West 436 502 34,000  Level Denver Center
Sat 01:09:22 PM 43.2553 -105.6789 276° West 438 504 34,000  Level Denver Center
Sat 01:10:24 PM 43.2742 -105.8883 277° West 438 504 34,000  Level Denver Center
Sat 01:11:38 PM 43.2858 -106.0439 276° West 431 496 34,000  Level Denver Center
Sat 01:12:41 PM 43.3008 -106.2550 276° West 435 501 34,000  Level Denver Center
Sat 01:13:43 PM 43.3122 -106.4139 276° West 440 506 34,000  Level Denver Center
Sat 01:14:57 PM 43.3236 -106.6008 275° West 441 507 34,000  Level Denver Center
Sat 01:15:59 PM 43.3350 -106.7597 276° West 439 505 34,000  Level Denver Center
Sat 01:17:02 PM 43.3478 -106.9800 275° West 441 507 34,000  Level Denver Center
Sat 01:17:28 PM 43.3531 -107.0608 275° West 439 505 34,000  Level Salt Lake Center
Sat 01:18:29 PM 43.3628 -107.2222 275° West 443 510 34,000  Level Salt Lake Center
Sat 01:19:06 PM 43.3694 -107.3267 275° West 438 504 34,000  Level Denver Center
Sat 01:19:31 PM 43.3722 -107.3822 274° West 441 507 34,000  Level Salt Lake Center
Sat 01:20:32 PM 43.3836 -107.5694 275° West 441 507 34,000  Level Salt Lake Center
Sat 01:21:33 PM 43.3925 -107.7300 274° West 441 507 34,000  Level Salt Lake Center
Sat 01:22:35 PM 43.4017 -107.8883 275° West 435 501 34,000  Level Salt Lake Center
Sat 01:23:36 PM 43.4231 -108.0758 279° West 443 510 34,000  Level Salt Lake Center
Sat 01:24:37 PM 43.4531 -108.2358 285° West 449 517 34,000  Level Salt Lake Center
Sat 01:25:39 PM 43.4672 -108.4247 276° West 445 512 34,000  Level Salt Lake Center
Sat 01:26:40 PM 43.4750 -108.5861 274° West 442 509 34,000  Level Salt Lake Center
Sat 01:27:41 PM 43.4828 -108.7469 274° West 440 506 34,000  Level Salt Lake Center
Sat 01:28:43 PM 43.4908 -108.9342 273° West 437 503 34,000  Level Salt Lake Center
Sat 01:29:44 PM 43.4969 -109.0953 273° West 440 506 34,000  Level Salt Lake Center
Sat 01:30:45 PM 43.5047 -109.2811 273° West 436 502 34,000  Level Salt Lake Center
Sat 01:31:47 PM 43.5111 -109.4408 273° West 436 502 34,000  Level Salt Lake Center
Sat 01:32:48 PM 43.5167 -109.5953 273° West 436 502 34,000  Level Salt Lake Center
Sat 01:33:50 PM 43.5231 -109.7831 273° West 438 504 34,000  Level Salt Lake Center
Sat 01:34:51 PM 43.5283 -109.9439 273° West 439 505 34,000  Level Salt Lake Center
Sat 01:35:52 PM 43.5353 -110.1342 273° West 444 511 34,000  Level Salt Lake Center
Sat 01:36:54 PM 43.5406 -110.2986 273° West 447 514 34,000  Level Salt Lake Center
Sat 01:37:55 PM 43.5453 -110.4639 272° West 450 518 34,000  Level Salt Lake Center
Sat 01:38:57 PM 43.5508 -110.6569 272° West 449 517 34,000  Level Salt Lake Center
Sat 01:39:58 PM 43.5550 -110.8242 272° West 456 525 34,000  Level Salt Lake Center
Sat 01:41:00 PM 43.5597 -111.0233 272° West 463 533 34,000  Level Salt Lake Center
Sat 01:42:01 PM 43.5636 -111.1908 272° West 458 527 34,000  Level Salt Lake Center
Sat 01:43:03 PM 43.5664 -111.3572 271° West 454 522 34,000  Level Salt Lake Center
Sat 01:44:05 PM 43.5711 -111.5511 272° West 452 520 34,000  Level Salt Lake Center
Sat 01:45:06 PM 43.5742 -111.7175 272° West 453 521 34,000  Level Salt Lake Center
Sat 01:46:08 PM 43.5764 -111.9103 271° West 450 518 34,000  Level Salt Lake Center
Sat 01:47:09 PM 43.5789 -112.0747 271° West 449 517 34,000  Level Salt Lake Center
Sat 01:48:11 PM 43.5817 -112.2394 271° West 448 516 34,000  Level Salt Lake Center
Sat 01:49:13 PM 43.5847 -112.4319 271° West 448 516 34,000  Level Salt Lake Center
Sat 01:50:14 PM 43.5853 -112.5936 270° West 444 511 34,000  Level Salt Lake Center
Sat 01:51:16 PM 43.5861 -112.7817 270° West 440 506 34,000  Level Salt Lake Center
Sat 01:52:17 PM 43.5894 -112.9467 272° West 447 514 34,000  Level Salt Lake Center
Sat 01:53:19 PM 43.5897 -113.1375 270° West 448 516 34,000  Level Salt Lake Center
Sat 01:54:21 PM 43.5903 -113.3019 270° West 449 517 34,000  Level Salt Lake Center
Sat 01:55:22 PM 43.5906 -113.4656 270° West 446 513 34,000  Level Salt Lake Center
Sat 01:56:24 PM 43.5925 -113.6586 271° West 446 513 34,000  Level Salt Lake Center
Sat 01:57:26 PM 43.5925 -113.8189 270° West 439 505 34,000  Level Salt Lake Center
Sat 01:58:27 PM 43.5900 -114.0025 269° West 438 504 34,000  Level Salt Lake Center
Sat 01:59:29 PM 43.5900 -114.1625 270° West 435 501 34,000 -194 Level Salt Lake Center
Sat 02:00:31 PM 43.5892 -114.3497 270° West 434 499 33,600 -1,258 Descending Salt Lake Center
Sat 02:01:33 PM 43.5886 -114.5150 270° West 452 520 31,400 -2,878 Descending Salt Lake Center
Sat 02:02:34 PM 43.5875 -114.7106 270° West 455 524 27,700 -3,366 Descending Salt Lake Center
Sat 02:03:36 PM 43.5853 -114.8708 269° West 434 499 24,500 -3,194 Descending Salt Lake Center
Sat 02:04:38 PM 43.5831 -115.0244 269° West 420 483 21,100 -3,512 Descending Salt Lake Center
Sat 02:05:39 PM 43.5817 -115.1933 269° West 402 463 17,300 -3,610 Descending Salt Lake Center
Sat 02:06:41 PM 43.5794 -115.3467 269° West 386 444 13,700 -2,565 Descending Salt Lake Center
Sat 02:07:43 PM 43.5533 -115.4844 255° West 353 406 12,000 -919 Descending Salt Lake Center
Sat 02:08:45 PM 43.5267 -115.6061 253° West 322 371 11,800 -829 Descending Salt Lake Center
Sat 02:09:46 PM 43.5042 -115.7136 254° West 308 354 10,300 -1,415 Descending Salt Lake Center
Sat 02:10:48 PM 43.4814 -115.8214 254° West 288 331 8,900 -1,500 Descending Salt Lake Center
Sat 02:11:50 PM 43.4631 -115.9256 256° West 270 311 7,200 -1,512 Descending Salt Lake Center
Sat 02:12:51 PM 43.4925 -116.0125 295° West 243 280 5,800 -1,377 Descending Salt Lake Center

Login

Don't have an account? Register now (free) for customized features, flight alerts, and more!